»·PEaware :: SWA821 KPHX-KRNO

SWA821 :: KPHX-KRNO

FLIGHT INFORMATION

Flight Status: Arrived
Operator:
Southwest Airlines
More flights by this operator :: More flights under this callsign
Pilot: Andre N. (13929)
Aircraft: BOEING 737-800
(B738)
More flights by this aircraft type
Origin: KPHX Phoenix Sky Harbor Intl
United States
Destination: KRNO Reno/Tahoe Intl
United States
More flights between these airports :: More routes between these airports
Route: +ZIDOG1 ZIDOG ZEPER RAMSY SISIE DOVEE BTY KENNO KENNO2
File this flight plan on PilotEdge
Remarks:
Altitude:
(Current/Filed)
34,000ft
Speed:
(Current/Filed)
450kts
Departed: 13-Apr-18 08:20 PM
Arrived: 13-Apr-18 09:51 PM
Distance/Time
Traveled:
522nm/1:31
Distance/Time
To Go:
Arrived

Flight Plot

Page will automatically refresh every two minutes.

Flight plan parsing failed; only flown route is shown


Map Options




Map Legend


Flown Route
Filed Route
Departure Airport
Arrival Airport
Navaid (VOR, NDB)
Fix

Horizontal Profiles

Position Reports

Time Latitude Longitude Heading Altitude Ground
Speed
13-Apr-18 19:55 33.434043 -111.998748 285 1142ft 0kts
13-Apr-18 19:56 33.434043 -111.998748 285 1142ft 0kts
13-Apr-18 19:57 33.434043 -111.998748 285 1142ft 0kts
13-Apr-18 19:58 33.434043 -111.998748 285 1142ft 0kts
13-Apr-18 19:59 33.434043 -111.998748 285 1142ft 0kts
13-Apr-18 20:00 33.434043 -111.998748 285 1142ft 0kts
13-Apr-18 20:01 33.434043 -111.998748 285 1142ft 0kts
13-Apr-18 20:02 33.434043 -111.998748 285 1142ft 0kts
13-Apr-18 20:03 33.434043 -111.998748 285 1142ft 0kts
13-Apr-18 20:04 33.434043 -111.998748 285 1142ft 0kts
13-Apr-18 20:05 33.434043 -111.998748 285 1142ft 0kts
13-Apr-18 20:06 33.434043 -111.998748 285 1142ft 0kts
13-Apr-18 20:07 33.434043 -111.998748 285 1142ft 0kts
13-Apr-18 20:08 33.434043 -111.998748 285 1142ft 0kts
13-Apr-18 20:09 33.434043 -111.998748 285 1142ft 0kts
13-Apr-18 20:10 33.434043 -111.998748 285 1142ft 0kts
13-Apr-18 20:11 33.433990 -111.998314 227 1142ft 1kts
13-Apr-18 20:12 33.434274 -111.998272 180 1142ft 0kts
13-Apr-18 20:13 33.434274 -111.998272 180 1141ft 0kts
13-Apr-18 20:14 33.434274 -111.998272 180 1141ft 0kts
13-Apr-18 20:15 33.434103 -111.998270 179 1141ft 5kts
13-Apr-18 20:16 33.432129 -111.996918 89 1141ft 12kts
13-Apr-18 20:17 33.432067 -111.993818 114 1141ft 0kts
13-Apr-18 20:18 33.431150 -111.993656 233 1141ft 10kts
13-Apr-18 20:19 33.430981 -112.021248 271 1352ft 175kts
13-Apr-18 20:20 33.432691 -112.090024 273 3800ft 233kts
13-Apr-18 20:21 33.436331 -112.168557 291 6900ft 245kts
13-Apr-18 20:22 33.496820 -112.196279 359 7977ft 247kts
13-Apr-18 20:23 33.563516 -112.207620 332 8044ft 251kts
13-Apr-18 20:24 33.627925 -112.251544 330 10623ft 275kts
13-Apr-18 20:25 33.700166 -112.301404 330 12676ft 318kts
13-Apr-18 20:26 33.778148 -112.355350 330 15384ft 331kts
13-Apr-18 20:27 33.859040 -112.411428 330 17882ft 343kts
13-Apr-18 20:28 33.942802 -112.469608 330 20124ft 355kts
13-Apr-18 20:29 34.028633 -112.529379 330 22040ft 366kts
13-Apr-18 20:30 34.112719 -112.588068 329 23904ft 372kts
13-Apr-18 20:31 34.201743 -112.650353 329 25534ft 381kts
13-Apr-18 20:32 34.293734 -112.714924 329 27047ft 389kts
13-Apr-18 20:33 34.388078 -112.781321 329 28426ft 397kts
13-Apr-18 20:34 34.483922 -112.848944 329 29748ft 402kts
13-Apr-18 20:35 34.579961 -112.916878 329 31218ft 400kts
13-Apr-18 20:36 34.675138 -112.984378 329 32537ft 397kts
13-Apr-18 20:37 34.770055 -113.051871 329 33724ft 394kts
13-Apr-18 20:38 34.865092 -113.119645 328 34251ft 407kts
13-Apr-18 20:39 34.935847 -113.228950 300 34268ft 432kts
13-Apr-18 20:40 34.995120 -113.359477 294 34279ft 445kts
13-Apr-18 20:41 35.038574 -113.501150 292 34285ft 446kts
13-Apr-18 20:42 35.082327 -113.642412 292 34287ft 445kts
13-Apr-18 20:43 35.123317 -113.773776 291 34293ft 445kts
13-Apr-18 20:44 35.167500 -113.914739 291 34293ft 445kts
13-Apr-18 20:45 35.211839 -114.055661 292 34292ft 445kts
13-Apr-18 20:46 35.256450 -114.196959 292 34292ft 445kts
13-Apr-18 20:47 35.301156 -114.338075 292 34291ft 445kts
13-Apr-18 20:48 35.345821 -114.478606 292 34237ft 445kts
13-Apr-18 20:49 35.390844 -114.619815 292 34233ft 446kts
13-Apr-18 20:50 35.433695 -114.753890 292 34420ft 446kts
13-Apr-18 20:51 35.502336 -114.878015 311 34735ft 444kts
13-Apr-18 20:52 35.583040 -114.992514 310 35052ft 444kts
13-Apr-18 20:53 35.658860 -115.101950 310 35354ft 443kts
13-Apr-18 20:54 35.737491 -115.215973 310 35649ft 443kts
13-Apr-18 20:55 35.816732 -115.330850 310 35376ft 442kts
13-Apr-18 20:56 35.895898 -115.445483 311 34128ft 455kts
13-Apr-18 20:57 35.975674 -115.560862 311 34268ft 443kts
13-Apr-18 20:58 36.054667 -115.674974 310 34264ft 444kts
13-Apr-18 20:59 36.123589 -115.774467 310 34267ft 444kts
13-Apr-18 21:00 36.203817 -115.890104 310 34292ft 444kts
13-Apr-18 21:01 36.284331 -116.005997 310 34292ft 444kts
13-Apr-18 21:02 36.364711 -116.121552 311 34291ft 444kts
13-Apr-18 21:03 36.445287 -116.237246 311 34291ft 444kts
13-Apr-18 21:04 36.525856 -116.352793 311 34290ft 444kts
13-Apr-18 21:05 36.606573 -116.468419 311 34289ft 444kts
13-Apr-18 21:06 36.687496 -116.584213 311 34289ft 444kts
13-Apr-18 21:07 36.767918 -116.699199 311 34291ft 444kts
13-Apr-18 21:08 36.854277 -116.807899 317 34288ft 444kts
13-Apr-18 21:09 36.939034 -116.903145 317 34290ft 444kts
13-Apr-18 21:10 37.030523 -117.006265 317 34289ft 444kts
13-Apr-18 21:11 37.121598 -117.109159 317 34428ft 443kts
13-Apr-18 21:12 37.212853 -117.212359 317 34427ft 443kts
13-Apr-18 21:13 37.304065 -117.315413 318 34426ft 443kts
13-Apr-18 21:14 37.397698 -117.415787 319 34425ft 443kts
13-Apr-18 21:15 37.490630 -117.515432 320 34425ft 443kts
13-Apr-18 21:16 37.588871 -117.595969 327 34422ft 445kts
13-Apr-18 21:17 37.680382 -117.668272 326 34428ft 445kts
13-Apr-18 21:18 37.783124 -117.749837 326 34427ft 445kts
13-Apr-18 21:19 37.887943 -117.833358 326 34426ft 445kts
13-Apr-18 21:20 37.992122 -117.916669 326 34425ft 445kts
13-Apr-18 21:21 38.079228 -117.986553 326 34423ft 445kts
13-Apr-18 21:22 38.180943 -118.068428 326 33879ft 452kts
13-Apr-18 21:23 38.285679 -118.153009 326 32291ft 446kts
13-Apr-18 21:24 38.390813 -118.238220 326 30711ft 450kts
13-Apr-18 21:25 38.485106 -118.341078 315 29131ft 449kts
13-Apr-18 21:26 38.573327 -118.450616 315 27525ft 444kts
13-Apr-18 21:27 38.661836 -118.560704 315 25937ft 446kts
13-Apr-18 21:28 38.744625 -118.663896 315 24273ft 399kts
13-Apr-18 21:29 38.815365 -118.752058 315 22747ft 367kts
13-Apr-18 21:30 38.886596 -118.841057 315 21334ft 355kts
13-Apr-18 21:31 38.956246 -118.928308 315 19962ft 348kts
13-Apr-18 21:32 39.024759 -119.014357 315 18655ft 342kts
13-Apr-18 21:33 39.092061 -119.099111 315 17345ft 335kts
13-Apr-18 21:34 39.151684 -119.174383 315 16119ft 316kts
13-Apr-18 21:35 39.212551 -119.251365 315 14799ft 302kts
13-Apr-18 21:36 39.271465 -119.325908 315 13502ft 296kts
13-Apr-18 21:37 39.329207 -119.399142 315 12202ft 278kts
13-Apr-18 21:38 39.383694 -119.459444 324 10958ft 253kts
13-Apr-18 21:39 39.440218 -119.512073 324 9777ft 253kts
13-Apr-18 21:40 39.496367 -119.560114 347 9343ft 229kts
13-Apr-18 21:41 39.558458 -119.571843 354 9074ft 217kts
13-Apr-18 21:42 39.618258 -119.578769 355 8624ft 216kts
13-Apr-18 21:43 39.674987 -119.592475 316 8156ft 202kts
13-Apr-18 21:44 39.682088 -119.657341 265 7718ft 188kts
13-Apr-18 21:45 39.678360 -119.716490 264 7730ft 189kts
13-Apr-18 21:46 39.654484 -119.769339 180 7568ft 167kts
13-Apr-18 21:47 39.609117 -119.765516 185 6445ft 163kts
13-Apr-18 21:48 39.564275 -119.770156 177 5575ft 163kts
13-Apr-18 21:49 39.519382 -119.769242 179 4646ft 161kts
13-Apr-18 21:50 39.490224 -119.769243 179 4423ft 26kts
13-Apr-18 21:51 39.489303 -119.770345 293 4423ft 0kts
13-Apr-18 21:52 39.489333 -119.770447 285 4422ft 4kts
13-Apr-18 21:53 39.492077 -119.771528 0 4423ft 18kts
13-Apr-18 21:54 39.497173 -119.771523 0 4423ft 18kts
13-Apr-18 21:55 39.502596 -119.771513 1 4423ft 19kts
13-Apr-18 21:56 39.503725 -119.773062 267 4423ft 7kts
13-Apr-18 21:57 39.504390 -119.773750 358 4423ft 0kts

Navigation Log

Ident Type
Flight plan parsing failed, navigation log unavailable